createdAt,value
2022-10-04T00:01:37.031Z,4.8
2022-10-04T00:06:39.983Z,4
2022-10-04T00:11:42.251Z,4.5
2022-10-04T00:16:45.471Z,4.8
2022-10-04T00:21:47.769Z,5
2022-10-04T00:26:49.721Z,4.3
2022-10-04T00:31:52.131Z,5.1
2022-10-04T00:36:54.345Z,5.4
2022-10-04T00:41:56.295Z,4.9
2022-10-04T00:46:58.501Z,5.4
2022-10-04T00:52:01.687Z,5.6
2022-10-04T00:57:03.651Z,4.9
2022-10-04T01:02:05.928Z,4.9
2022-10-04T01:07:08.336Z,3.8
2022-10-04T01:12:10.223Z,6.9
2022-10-04T01:17:12.535Z,6.3
2022-10-04T01:22:14.846Z,5.8
2022-10-04T01:27:16.819Z,5.5
2022-10-04T01:32:18.905Z,6.6
2022-10-04T01:37:20.863Z,4.7
2022-10-04T01:42:23.004Z,4.6
2022-10-04T01:47:25.286Z,3.3
2022-10-04T01:52:27.516Z,5.3
2022-10-04T01:57:29.426Z,6
2022-10-04T02:02:31.493Z,5.1
2022-10-04T02:07:33.513Z,6.2
2022-10-04T02:12:35.514Z,4
2022-10-04T02:17:37.520Z,4.3
2022-10-04T02:22:39.902Z,4.3
2022-10-04T02:27:41.945Z,5.7
2022-10-04T02:32:44.259Z,4.1
2022-10-04T02:37:46.253Z,4.5
2022-10-04T02:42:48.295Z,5.7
2022-10-04T02:47:50.947Z,6
2022-10-04T02:52:52.891Z,5
2022-10-04T02:57:54.778Z,3.5
2022-10-04T03:02:56.958Z,4.7
2022-10-04T03:07:59.197Z,5.4
2022-10-04T03:13:01.142Z,6.1
2022-10-04T03:18:03.313Z,4.8
2022-10-04T03:23:05.321Z,7
2022-10-04T03:28:07.332Z,5.3
2022-10-04T03:33:09.642Z,5.1
2022-10-04T03:38:11.698Z,4.9
2022-10-04T03:43:13.767Z,6.2
2022-10-04T03:48:16.133Z,7.2
2022-10-04T03:53:18.296Z,6.7
2022-10-04T03:58:20.286Z,5.3
2022-10-04T04:03:22.308Z,5.4
2022-10-04T04:08:24.286Z,8.8
2022-10-04T04:13:26.264Z,5.3
2022-10-04T04:18:28.258Z,5.1
2022-10-04T04:23:30.301Z,7.8
2022-10-04T04:28:32.360Z,5.4
2022-10-04T04:33:35.208Z,4.8
2022-10-04T04:38:37.330Z,5.3
2022-10-04T04:43:39.507Z,8.9
2022-10-04T04:48:42.268Z,6.1
2022-10-04T04:53:45.079Z,4.5
2022-10-04T04:58:47.761Z,7.3
2022-10-04T05:03:50.651Z,6.1
2022-10-04T05:08:53.134Z,4.6
2022-10-04T05:13:55.171Z,7.2
2022-10-04T05:18:57.793Z,7
2022-10-04T05:24:00.546Z,7.7
2022-10-04T05:29:02.954Z,4
2022-10-04T05:34:05.249Z,4.5
2022-10-04T05:39:07.179Z,4.1
2022-10-04T05:44:09.309Z,5.3
2022-10-04T05:49:13.432Z,4.8
2022-10-04T05:54:20.867Z,3.6
2022-10-04T05:59:22.838Z,4.4
2022-10-04T06:04:24.928Z,2.9
2022-10-04T06:09:26.952Z,3.3
2022-10-04T06:14:28.934Z,5.6
2022-10-04T06:19:30.844Z,3.3
2022-10-04T06:24:33.258Z,3.7
2022-10-04T06:29:35.313Z,5.6
2022-10-04T06:34:37.289Z,3.4
2022-10-04T06:39:39.383Z,1.9
2022-10-04T06:44:44.339Z,3.7
2022-10-04T06:49:48.390Z,2.7
2022-10-04T06:54:50.407Z,3.3
2022-10-04T06:59:52.389Z,3.4
2022-10-04T07:05:07.911Z,2.6
2022-10-04T07:10:01.427Z,3.4
2022-10-04T07:15:03.525Z,2.8
2022-10-04T07:20:05.835Z,3.5
2022-10-04T07:25:08.422Z,2.5
2022-10-04T07:30:10.724Z,2.7
2022-10-04T07:35:12.561Z,2.2
2022-10-04T07:40:15.370Z,2.7
2022-10-04T07:45:17.416Z,2.6
2022-10-04T07:50:19.784Z,2.8
2022-10-04T07:55:22.159Z,3
2022-10-04T08:00:24.238Z,4.2
2022-10-04T08:05:26.413Z,3.5
2022-10-04T08:10:28.538Z,3.6
2022-10-04T08:15:30.616Z,3.6
2022-10-04T08:20:32.912Z,2.5
2022-10-04T08:25:35.221Z,3.2
2022-10-04T08:30:37.184Z,3.3
2022-10-04T08:35:39.212Z,4
2022-10-04T08:40:41.240Z,8.1
2022-10-04T08:45:41.702Z,4
2022-10-04T08:50:43.678Z,2.4
2022-10-04T08:55:45.665Z,4.5
2022-10-04T09:00:47.699Z,5.4
2022-10-04T09:05:49.641Z,2.9
2022-10-04T09:10:51.879Z,2.9
2022-10-04T09:15:54.160Z,3.1
2022-10-04T09:20:56.684Z,2.6
2022-10-04T09:25:59.958Z,2.6
2022-10-04T09:31:02.081Z,6.8
2022-10-04T09:36:04.509Z,2.8
2022-10-04T09:41:06.643Z,2.4
2022-10-04T09:46:08.698Z,3.9
2022-10-04T09:51:10.780Z,4.2
2022-10-04T09:56:12.687Z,5.6
2022-10-04T10:01:14.708Z,5.6
2022-10-04T10:06:16.789Z,4
2022-10-04T10:11:17.185Z,1.6
2022-10-04T10:16:19.226Z,2
2022-10-04T10:21:22.028Z,2.6
2022-10-04T10:26:24.137Z,1.8
2022-10-04T10:31:26.607Z,2.7
2022-10-04T10:36:29.838Z,3.2
2022-10-04T10:41:31.830Z,4.3
2022-10-04T10:46:36.155Z,3.7
2022-10-04T10:51:39.655Z,2
2022-10-04T10:56:41.747Z,2.7
2022-10-04T11:01:45.410Z,2.2
2022-10-04T11:06:48.198Z,3.4
2022-10-04T11:11:48.974Z,2.1
2022-10-04T11:16:50.909Z,2.4
2022-10-04T11:21:52.983Z,2.4
2022-10-04T11:26:55.229Z,1.8
2022-10-04T11:31:57.219Z,2.6
2022-10-04T11:36:59.187Z,2.4
2022-10-04T11:42:01.224Z,1.8
2022-10-04T11:47:03.505Z,4.3
2022-10-04T11:52:05.897Z,3.6
2022-10-04T11:57:07.835Z,1.4
2022-10-04T12:02:10.137Z,2.5
2022-10-04T12:07:12.046Z,1.7
2022-10-04T12:12:13.987Z,2.5
2022-10-04T12:17:16.961Z,2.1
2022-10-04T12:22:19.069Z,2.4
2022-10-04T12:27:21.081Z,2.7
2022-10-04T12:32:23.047Z,2.2
2022-10-04T12:37:25.365Z,2.9
2022-10-04T12:42:30.396Z,2.5
2022-10-04T12:47:34.315Z,2.5
2022-10-04T12:52:36.278Z,2.7
2022-10-04T12:57:38.214Z,1.9
2022-10-04T13:02:40.212Z,2.3
2022-10-04T13:07:42.381Z,2.8
2022-10-04T13:12:44.506Z,2.2
2022-10-04T13:17:47.159Z,2.4
2022-10-04T13:22:56.797Z,2.5
2022-10-04T13:27:50.388Z,2.9
2022-10-04T13:32:52.740Z,2.3
2022-10-04T13:37:56.868Z,3.5
2022-10-04T13:42:58.900Z,3.4
2022-10-04T13:48:00.902Z,3.9
2022-10-04T13:53:02.897Z,3.7
2022-10-04T13:58:05.053Z,5.9
2022-10-04T14:03:07.033Z,4.2
2022-10-04T14:08:09.163Z,3.2
2022-10-04T14:13:11.593Z,4
2022-10-04T14:18:13.622Z,2.5
2022-10-04T14:23:15.555Z,3.2
2022-10-04T14:28:17.575Z,2
2022-10-04T14:33:19.701Z,2.5
2022-10-04T14:38:25.887Z,3.9
2022-10-04T14:43:28.890Z,4.2
2022-10-04T14:48:31.146Z,4.4
2022-10-04T14:53:33.306Z,3.1
2022-10-04T14:58:35.331Z,5.1
2022-10-04T15:03:37.562Z,2.8
2022-10-04T15:08:39.829Z,10.6
2022-10-04T15:13:41.805Z,4
2022-10-04T15:18:44.366Z,3.8
2022-10-04T15:23:46.758Z,4.1
2022-10-04T15:28:48.878Z,2.7
2022-10-04T15:33:51.100Z,5
2022-10-04T15:38:53.221Z,3.8
2022-10-04T15:43:55.189Z,3.2
2022-10-04T15:48:57.542Z,3.1
2022-10-04T15:53:59.811Z,5.1
2022-10-04T15:59:01.773Z,2.7
2022-10-04T16:04:06.769Z,4.6
2022-10-04T16:09:10.837Z,4.4
2022-10-04T16:14:12.848Z,3.3
2022-10-04T16:19:15.293Z,5
2022-10-04T16:24:17.284Z,6.8
2022-10-04T16:29:19.453Z,7.4
2022-10-04T16:34:21.702Z,7.2
2022-10-04T16:39:24.062Z,6.1
2022-10-04T16:44:27.279Z,10.4
2022-10-04T16:49:27.853Z,5.2
2022-10-04T16:54:29.818Z,8.8
2022-10-04T16:59:31.812Z,6.5
2022-10-04T17:04:33.761Z,8.4
2022-10-04T17:09:35.947Z,7.4
2022-10-04T17:14:38.247Z,8.6
2022-10-04T17:19:40.304Z,7.1
2022-10-04T17:24:42.412Z,7.5
2022-10-04T17:29:44.417Z,8.2
2022-10-04T17:34:46.663Z,9.8
2022-10-04T17:39:48.644Z,28
2022-10-04T17:44:50.815Z,11.4
2022-10-04T17:49:52.966Z,13.1
2022-10-04T17:54:54.949Z,18.9
2022-10-04T17:59:56.925Z,20.3
2022-10-04T18:04:59.493Z,22.7
2022-10-04T18:10:01.553Z,21.7
2022-10-04T18:15:03.560Z,19.6
2022-10-04T18:20:05.627Z,19.3
2022-10-04T18:25:07.476Z,24.7
2022-10-04T18:30:09.460Z,18.5
2022-10-04T18:35:11.639Z,18.4
2022-10-04T18:40:13.546Z,18
2022-10-04T18:45:15.834Z,17.7
2022-10-04T18:50:18.601Z,16
2022-10-04T18:55:20.744Z,15.9
2022-10-04T19:00:27.334Z,13.9
2022-10-04T19:05:29.701Z,15.1
2022-10-04T19:10:34.380Z,45.6
2022-10-04T19:15:39.441Z,18.5
2022-10-04T19:20:44.862Z,20.6
2022-10-04T19:26:03.282Z,17.2
2022-10-04T19:30:53.872Z,14.9
2022-10-04T19:35:55.915Z,14.4
2022-10-04T19:40:57.879Z,13
2022-10-04T19:47:50.352Z,12.7
2022-10-04T19:51:02.661Z,12.4
2022-10-04T19:56:04.752Z,14.4
2022-10-04T20:01:06.738Z,13
2022-10-04T20:06:09.371Z,53.7
2022-10-04T20:11:11.450Z,11.3
2022-10-04T20:16:13.691Z,12
2022-10-04T20:21:16.129Z,12.8
2022-10-04T20:26:22.915Z,12.2
2022-10-04T20:31:25.102Z,12.3
2022-10-04T20:36:27.753Z,13
2022-10-04T20:41:29.885Z,13.3
2022-10-04T20:46:31.975Z,13.3
2022-10-04T20:51:34.064Z,12.4
2022-10-04T20:56:36.295Z,12.8
2022-10-04T21:01:39.023Z,15.8
2022-10-04T21:06:41.317Z,24.3
2022-10-04T21:11:44.091Z,14.6
2022-10-04T21:16:46.348Z,13.8
2022-10-04T21:21:50.966Z,13.2
2022-10-04T21:26:53.025Z,11.4
2022-10-04T21:31:55.115Z,11.9
2022-10-04T21:36:57.441Z,11.3
2022-10-04T21:41:59.411Z,12.9
2022-10-04T21:47:01.556Z,11.5
2022-10-04T21:52:03.881Z,10.9
2022-10-04T21:57:05.847Z,10.6
2022-10-04T22:02:07.957Z,13.1
2022-10-04T22:07:10.472Z,13
2022-10-04T22:12:12.436Z,11.9
2022-10-04T22:17:14.355Z,11
2022-10-04T22:22:16.289Z,11.4
2022-10-04T22:27:18.579Z,10.9
2022-10-04T22:32:20.592Z,12.6
2022-10-04T22:37:22.595Z,13.6
2022-10-04T22:42:24.575Z,14.2
2022-10-04T22:47:26.475Z,13.8
2022-10-04T22:52:28.452Z,13.2
2022-10-04T22:57:30.454Z,14.4
2022-10-04T23:02:32.442Z,13.4
2022-10-04T23:07:38.146Z,13
2022-10-04T23:12:40.696Z,14.2
2022-10-04T23:17:42.745Z,14.2
2022-10-04T23:22:44.762Z,14.2
2022-10-04T23:27:46.886Z,14.1
2022-10-04T23:32:48.881Z,14
2022-10-04T23:37:50.910Z,14.1
2022-10-04T23:42:52.870Z,15.5
2022-10-04T23:47:54.840Z,15
2022-10-04T23:52:57.057Z,14.8
2022-10-04T23:57:59.204Z,15.6
